createdAt,value
2022-09-20T00:00:43.693Z,1.33
2022-09-20T00:02:45.281Z,1.10
2022-09-20T00:04:49.610Z,1.40
2022-09-20T00:06:51.435Z,1.40
2022-09-20T00:08:53.483Z,1.35
2022-09-20T00:11:06.317Z,1.48
2022-09-20T00:13:11.273Z,1.50
2022-09-20T00:15:12.812Z,1.50
2022-09-20T00:17:14.716Z,1.63
2022-09-20T00:19:21.163Z,1.38
2022-09-20T00:21:27.866Z,1.63
2022-09-20T00:23:30.335Z,1.90
2022-09-20T00:25:32.077Z,1.58
2022-09-20T00:27:33.710Z,1.60
2022-09-20T00:29:35.354Z,1.42
2022-09-20T00:31:39.182Z,1.30
2022-09-20T00:36:00.855Z,1.50
2022-09-20T00:38:02.472Z,1.40
2022-09-20T00:40:05.758Z,1.35
2022-09-20T00:42:09.832Z,1.40
2022-09-20T00:44:48.129Z,1.70
2022-09-20T00:46:49.830Z,1.30
2022-09-20T00:48:53.391Z,1.60
2022-09-20T00:51:00.124Z,1.30
2022-09-20T00:53:26.508Z,1.40
2022-09-20T00:55:29.174Z,1.30
2022-09-20T00:57:35.309Z,1.58
2022-09-20T00:59:40.567Z,1.40
2022-09-20T01:01:44.192Z,1.10
2022-09-20T01:03:46.505Z,1.17
2022-09-20T01:05:48.169Z,1.25
2022-09-20T01:07:50.617Z,1.30
2022-09-20T01:09:52.450Z,1.40
2022-09-20T01:11:55.920Z,1.30
2022-09-20T01:13:57.881Z,1.40
2022-09-20T01:16:01.381Z,1.20
2022-09-20T01:18:06.571Z,1.30
2022-09-20T01:22:21.770Z,1.23
2022-09-20T01:24:28.482Z,1.38
2022-09-20T01:26:47.392Z,1.17
2022-09-20T01:28:50.759Z,1.42
2022-09-20T01:31:46.873Z,1.27
2022-09-20T01:33:59.167Z,1.27
2022-09-20T01:36:04.101Z,1.50
2022-09-20T01:38:34.146Z,1.40
2022-09-20T01:41:19.490Z,1.25
2022-09-20T01:45:46.887Z,1.27
2022-09-20T01:47:57.689Z,1.30
2022-09-20T01:50:28.400Z,1.60
2022-09-20T01:52:36.396Z,1.75
2022-09-20T01:54:49.513Z,1.45
2022-09-20T01:57:09.230Z,1.40
2022-09-20T01:59:24.843Z,1.50
2022-09-20T02:01:32.657Z,1.42
2022-09-20T02:03:37.332Z,1.83
2022-09-20T02:05:48.097Z,1.65
2022-09-20T02:08:08.344Z,1.70
2022-09-20T02:10:20.262Z,1.90
2022-09-20T02:12:43.462Z,1.73
2022-09-20T02:15:03.801Z,1.77
2022-09-20T02:17:13.959Z,1.77
2022-09-20T02:19:28.131Z,1.52
2022-09-20T02:21:48.223Z,1.90
2022-09-20T02:24:15.052Z,1.90
2022-09-20T02:26:33.870Z,1.80
2022-09-20T02:29:01.391Z,1.65
2022-09-20T02:31:17.019Z,1.60
2022-09-20T02:33:36.674Z,1.60
2022-09-20T02:36:07.965Z,1.85
2022-09-20T02:38:18.669Z,1.88
2022-09-20T02:40:41.547Z,1.80
2022-09-20T02:43:04.752Z,1.90
2022-09-20T02:45:06.272Z,2.03
2022-09-20T02:47:37.651Z,1.70
2022-09-20T02:50:14.601Z,1.85
2022-09-20T02:52:40.452Z,2.00
2022-09-20T02:55:01.655Z,1.77
2022-09-20T02:57:06.359Z,1.90
2022-09-20T02:59:37.668Z,2.30
2022-09-20T03:01:49.186Z,1.92
2022-09-20T03:03:56.868Z,2.03
2022-09-20T03:06:06.420Z,1.95
2022-09-20T03:08:43.455Z,1.90
2022-09-20T03:11:22.102Z,2.13
2022-09-20T03:13:52.964Z,1.92
2022-09-20T03:16:14.941Z,2.03
2022-09-20T03:18:20.064Z,1.80
2022-09-20T03:20:36.034Z,1.90
2022-09-20T03:22:37.620Z,1.80
2022-09-20T03:24:54.415Z,1.75
2022-09-20T03:26:58.867Z,2.00
2022-09-20T03:29:00.499Z,1.70
2022-09-20T03:31:11.984Z,2.00
2022-09-20T03:33:44.214Z,1.60
2022-09-20T03:36:11.799Z,1.55
2022-09-20T03:38:29.830Z,1.60
2022-09-20T03:40:59.348Z,1.90
2022-09-20T03:43:11.405Z,1.58
2022-09-20T03:45:50.767Z,1.80
2022-09-20T03:48:09.364Z,1.77
2022-09-20T03:50:35.934Z,1.55
2022-09-20T03:53:00.203Z,1.60
2022-09-20T03:55:16.387Z,1.60
2022-09-20T03:57:36.665Z,1.98
2022-09-20T03:59:51.584Z,1.50
2022-09-20T04:01:56.741Z,1.75
2022-09-20T04:04:32.595Z,1.73
2022-09-20T04:06:43.160Z,1.85
2022-09-20T04:09:09.234Z,1.80
2022-09-20T04:11:30.093Z,1.73
2022-09-20T04:13:45.537Z,1.85
2022-09-20T04:16:19.343Z,1.70
2022-09-20T04:18:20.899Z,2.00
2022-09-20T04:20:40.447Z,1.88
2022-09-20T04:22:43.422Z,1.60
2022-09-20T04:24:53.175Z,1.97
2022-09-20T04:27:25.940Z,1.88
2022-09-20T04:29:34.193Z,1.90
2022-09-20T04:31:41.462Z,2.17
2022-09-20T04:33:45.658Z,2.10
2022-09-20T04:36:31.673Z,1.98
2022-09-20T04:38:35.701Z,1.92
2022-09-20T04:40:47.518Z,2.17
2022-09-20T04:43:07.687Z,2.20
2022-09-20T04:45:13.567Z,2.42
2022-09-20T04:47:36.886Z,2.15
2022-09-20T04:50:11.593Z,2.08
2022-09-20T04:52:49.939Z,1.85
2022-09-20T04:55:12.889Z,2.05
2022-09-20T04:57:39.888Z,2.20
2022-09-20T05:00:07.389Z,2.00
2022-09-20T05:02:21.256Z,2.03
2022-09-20T05:04:28.560Z,1.73
2022-09-20T05:06:48.513Z,2.10
2022-09-20T05:09:06.881Z,1.70
2022-09-20T05:11:30.650Z,1.90
2022-09-20T05:14:12.837Z,1.90
2022-09-20T05:16:44.157Z,1.98
2022-09-20T05:19:13.653Z,2.22
2022-09-20T05:21:38.132Z,2.05
2022-09-20T05:24:08.370Z,1.90
2022-09-20T05:26:22.787Z,2.10
2022-09-20T05:28:24.387Z,2.30
2022-09-20T05:30:35.315Z,1.73
2022-09-20T05:32:39.563Z,2.00
2022-09-20T05:35:00.292Z,1.80
2022-09-20T05:37:28.998Z,1.75
2022-09-20T05:39:45.973Z,1.80
2022-09-20T05:42:01.012Z,1.90
2022-09-20T05:44:31.225Z,1.80
2022-09-20T05:46:45.513Z,1.70
2022-09-20T05:51:09.333Z,1.52
2022-09-20T05:53:22.660Z,2.10
2022-09-20T05:55:54.813Z,1.73
2022-09-20T05:58:24.968Z,1.95
2022-09-20T06:00:31.055Z,2.05
2022-09-20T06:02:41.791Z,1.73
2022-09-20T06:04:52.863Z,1.45
2022-09-20T06:07:03.869Z,1.60
2022-09-20T06:09:17.040Z,1.20
2022-09-20T06:11:30.738Z,1.40
2022-09-20T06:14:10.241Z,1.40
2022-09-20T06:16:25.457Z,1.92
2022-09-20T06:18:31.960Z,2.58
2022-09-20T06:20:39.481Z,2.30
2022-09-20T06:22:52.569Z,2.22
2022-09-20T06:25:09.275Z,1.60
2022-09-20T06:27:19.318Z,1.55
2022-09-20T06:29:35.546Z,1.42
2022-09-20T06:31:38.165Z,1.95
2022-09-20T06:33:55.691Z,2.00
2022-09-20T06:36:32.707Z,1.70
2022-09-20T06:38:58.739Z,1.98
2022-09-20T06:41:18.767Z,1.80
2022-09-20T06:43:20.426Z,1.58
2022-09-20T06:45:22.036Z,2.10
2022-09-20T06:47:23.652Z,2.65
2022-09-20T06:49:27.376Z,1.10
2022-09-20T06:51:34.318Z,1.02
2022-09-20T06:53:40.323Z,1.30
2022-09-20T06:55:43.283Z,1.67
2022-09-20T06:57:45.901Z,2.90
2022-09-20T06:59:47.483Z,2.30
2022-09-20T07:01:49.529Z,1.75
2022-09-20T07:03:51.279Z,1.40
2022-09-20T07:05:53.029Z,1.20
2022-09-20T07:07:58.754Z,1.20
2022-09-20T07:10:00.322Z,1.30
2022-09-20T07:12:02.073Z,1.38
2022-09-20T07:14:03.829Z,1.15
2022-09-20T07:16:09.336Z,1.52
2022-09-20T07:18:10.988Z,1.50
2022-09-20T07:20:15.067Z,1.23
2022-09-20T07:22:18.581Z,1.42
2022-09-20T07:24:20.194Z,1.55
2022-09-20T07:26:26.814Z,2.03
2022-09-20T07:28:29.250Z,1.63
2022-09-20T07:30:30.987Z,1.23
2022-09-20T07:32:33.105Z,1.40
2022-09-20T07:34:34.738Z,1.88
2022-09-20T07:36:37.109Z,2.22
2022-09-20T07:38:39.975Z,1.58
2022-09-20T07:40:42.007Z,2.50
2022-09-20T07:42:46.021Z,1.30
2022-09-20T07:44:47.776Z,2.45
2022-09-20T07:46:52.770Z,1.70
2022-09-20T07:48:54.546Z,3.92
2022-09-20T07:50:59.091Z,1.55
2022-09-20T07:53:01.044Z,3.58
2022-09-20T07:55:02.760Z,3.33
2022-09-20T07:57:05.740Z,2.20
2022-09-20T07:59:07.434Z,1.85
2022-09-20T08:01:12.613Z,1.33
2022-09-20T08:03:14.356Z,1.25
2022-09-20T08:05:16.235Z,0.98
2022-09-20T08:07:18.844Z,1.30
2022-09-20T08:09:20.492Z,1.20
2022-09-20T08:11:27.748Z,1.10
2022-09-20T08:15:51.741Z,1.08
2022-09-20T08:17:53.339Z,1.10
2022-09-20T08:19:55.290Z,1.17
2022-09-20T08:21:57.065Z,1.58
2022-09-20T08:23:59.507Z,1.30
2022-09-20T08:26:02.496Z,0.90
2022-09-20T08:28:04.117Z,1.00
2022-09-20T08:30:06.465Z,1.15
2022-09-20T08:32:08.389Z,0.95
2022-09-20T08:34:12.417Z,1.50
2022-09-20T08:36:16.148Z,1.15
2022-09-20T08:40:39.568Z,0.80
2022-09-20T08:42:44.787Z,0.75
2022-09-20T08:45:00.698Z,1.00
2022-09-20T08:47:21.857Z,0.85
2022-09-20T08:49:26.702Z,0.95
2022-09-20T08:51:32.381Z,0.90
2022-09-20T08:53:34.252Z,0.80
2022-09-20T08:55:39.569Z,1.10
2022-09-20T08:57:41.209Z,0.95
2022-09-20T08:59:43.254Z,0.85
2022-09-20T09:01:45.644Z,1.20
2022-09-20T09:03:47.691Z,1.10
2022-09-20T09:05:53.940Z,1.20
2022-09-20T09:07:55.661Z,0.85
2022-09-20T09:09:57.263Z,0.95
2022-09-20T09:11:58.921Z,1.23
2022-09-20T09:14:30.027Z,1.45
2022-09-20T09:16:35.381Z,0.90
2022-09-20T09:18:40.696Z,0.93
2022-09-20T09:20:46.839Z,1.25
2022-09-20T09:23:09.107Z,1.73
2022-09-20T09:25:38.342Z,1.90
2022-09-20T09:27:55.245Z,2.33
2022-09-20T09:29:56.891Z,1.80
2022-09-20T09:32:19.223Z,1.70
2022-09-20T09:34:35.317Z,1.60
2022-09-20T09:36:43.989Z,1.38
2022-09-20T09:38:46.419Z,1.85
2022-09-20T09:41:02.366Z,1.50
2022-09-20T09:43:04.413Z,1.17
2022-09-20T09:45:13.944Z,1.60
2022-09-20T09:47:37.564Z,1.00
2022-09-20T09:50:00.149Z,1.40
2022-09-20T09:52:15.780Z,1.48
2022-09-20T09:54:19.917Z,1.75
2022-09-20T09:56:43.268Z,1.63
2022-09-20T09:58:54.923Z,1.08
2022-09-20T10:00:59.894Z,0.75
2022-09-20T10:03:20.017Z,1.23
2022-09-20T10:05:27.471Z,1.05
2022-09-20T10:08:03.231Z,0.90
2022-09-20T10:10:16.772Z,0.75
2022-09-20T10:12:31.048Z,1.00
2022-09-20T10:14:44.538Z,1.30
2022-09-20T10:17:05.041Z,1.30
2022-09-20T10:19:32.122Z,1.00
2022-09-20T10:21:43.852Z,0.80
2022-09-20T10:24:05.170Z,0.73
2022-09-20T10:26:27.106Z,0.90
2022-09-20T10:28:48.575Z,0.60
2022-09-20T10:31:11.732Z,0.60
2022-09-20T10:33:22.994Z,0.90
2022-09-20T10:35:29.159Z,0.90
2022-09-20T10:37:33.765Z,1.10
2022-09-20T10:39:37.572Z,1.23
2022-09-20T10:42:14.983Z,1.38
2022-09-20T10:44:19.340Z,1.00
2022-09-20T10:46:54.799Z,1.30
2022-09-20T10:49:24.094Z,0.98
2022-09-20T10:51:39.134Z,1.20
2022-09-20T10:54:02.585Z,1.80
2022-09-20T10:56:35.260Z,1.20
2022-09-20T10:58:54.285Z,1.10
2022-09-20T11:01:37.270Z,1.20
2022-09-20T11:03:54.008Z,1.10
2022-09-20T11:06:01.323Z,1.33
2022-09-20T11:08:19.131Z,1.30
2022-09-20T11:10:45.108Z,1.17
2022-09-20T11:12:52.024Z,2.40
2022-09-20T11:15:21.821Z,1.75
2022-09-20T11:17:31.945Z,1.77
2022-09-20T11:20:20.750Z,1.00
2022-09-20T11:22:44.079Z,1.10
2022-09-20T11:24:57.978Z,1.25
2022-09-20T11:27:06.916Z,1.73
2022-09-20T11:29:14.604Z,1.00
2022-09-20T11:31:24.859Z,1.60
2022-09-20T11:33:36.002Z,1.13
2022-09-20T11:35:44.376Z,0.93
2022-09-20T11:37:52.267Z,1.52
2022-09-20T11:39:55.031Z,1.00
2022-09-20T11:41:59.963Z,1.30
2022-09-20T11:44:13.590Z,1.42
2022-09-20T11:46:23.413Z,1.27
2022-09-20T11:48:31.971Z,1.02
2022-09-20T11:50:46.459Z,1.42
2022-09-20T11:53:21.102Z,1.20
2022-09-20T11:55:37.821Z,0.82
2022-09-20T11:57:39.783Z,0.90
2022-09-20T11:59:43.114Z,1.20
2022-09-20T12:01:45.924Z,1.40
2022-09-20T12:04:00.121Z,1.00
2022-09-20T12:06:27.455Z,1.00
2022-09-20T12:08:40.937Z,1.35
2022-09-20T12:10:42.862Z,1.08
2022-09-20T12:12:47.074Z,1.00
2022-09-20T12:14:56.553Z,1.10
2022-09-20T12:16:58.335Z,0.95
2022-09-20T12:18:59.892Z,1.00
2022-09-20T12:21:03.106Z,0.95
2022-09-20T12:23:38.827Z,2.40
2022-09-20T12:25:40.461Z,1.58
2022-09-20T12:27:42.215Z,1.23
2022-09-20T12:29:47.639Z,1.40
2022-09-20T12:31:54.799Z,0.85
2022-09-20T12:34:11.968Z,1.65
2022-09-20T12:36:16.882Z,2.10
2022-09-20T12:38:21.449Z,1.50
2022-09-20T12:40:26.289Z,1.10
2022-09-20T12:42:31.412Z,1.55
2022-09-20T12:44:35.373Z,1.63
2022-09-20T12:46:41.606Z,1.10
2022-09-20T12:48:43.202Z,1.60
2022-09-20T12:51:30.903Z,1.60
2022-09-20T12:53:32.580Z,0.90
2022-09-20T12:55:40.907Z,1.33
2022-09-20T12:57:42.972Z,1.17
2022-09-20T12:59:44.950Z,1.20
2022-09-20T13:01:46.985Z,0.90
2022-09-20T13:03:50.137Z,0.90
2022-09-20T13:06:15.690Z,1.50
2022-09-20T13:08:23.984Z,0.95
2022-09-20T13:10:29.304Z,0.70
2022-09-20T13:12:32.190Z,1.50
2022-09-20T13:14:34.914Z,1.30
2022-09-20T13:16:40.495Z,1.40
2022-09-20T13:18:42.343Z,1.73
2022-09-20T13:20:44.403Z,1.23
2022-09-20T13:22:46.158Z,1.20
2022-09-20T13:24:50.255Z,0.70
2022-09-20T13:26:53.917Z,0.68
2022-09-20T13:28:59.215Z,1.00
2022-09-20T13:31:21.658Z,1.20
2022-09-20T13:33:25.159Z,1.27
2022-09-20T13:35:32.437Z,0.63
2022-09-20T13:37:34.916Z,1.00
2022-09-20T13:39:37.334Z,1.10
2022-09-20T13:41:39.434Z,1.42
2022-09-20T13:43:43.578Z,0.65
2022-09-20T13:45:46.871Z,1.60
2022-09-20T13:47:51.518Z,1.30
2022-09-20T13:49:53.622Z,1.10
2022-09-20T13:51:55.403Z,1.20
2022-09-20T13:54:18.322Z,1.33
2022-09-20T13:56:23.607Z,1.70
2022-09-20T13:58:31.524Z,1.90
2022-09-20T14:00:34.856Z,1.42
2022-09-20T14:02:37.097Z,1.13
2022-09-20T14:04:38.913Z,1.33
2022-09-20T14:06:40.748Z,1.60
2022-09-20T14:08:45.192Z,1.67
2022-09-20T14:10:47.121Z,1.73
2022-09-20T14:12:49.266Z,0.90
2022-09-20T14:14:51.344Z,1.10
2022-09-20T14:16:55.000Z,0.93
2022-09-20T14:18:58.576Z,1.20
2022-09-20T14:21:00.679Z,0.82
2022-09-20T14:23:02.343Z,1.20
2022-09-20T14:25:21.195Z,1.20
2022-09-20T14:27:23.165Z,1.40
2022-09-20T14:29:43.780Z,1.20
2022-09-20T14:31:47.239Z,1.13
2022-09-20T14:33:55.111Z,1.10
2022-09-20T14:35:58.158Z,1.10
2022-09-20T14:38:02.304Z,1.35
2022-09-20T14:40:19.693Z,1.33
2022-09-20T14:42:27.152Z,1.02
2022-09-20T14:44:32.485Z,2.00
2022-09-20T14:46:38.821Z,2.05
2022-09-20T14:48:41.450Z,2.20
2022-09-20T14:50:45.786Z,1.77
2022-09-20T14:52:47.375Z,1.77
2022-09-20T14:54:59.797Z,1.42
2022-09-20T14:57:01.667Z,1.40
2022-09-20T14:59:13.868Z,1.15
2022-09-20T15:01:26.031Z,1.60
2022-09-20T15:03:31.083Z,1.30
2022-09-20T15:05:33.904Z,1.20
2022-09-20T15:07:37.243Z,1.13
2022-09-20T15:09:39.144Z,1.00
2022-09-20T15:11:41.088Z,1.05
2022-09-20T15:13:43.141Z,1.10
2022-09-20T15:15:48.554Z,2.53
2022-09-20T15:17:50.467Z,4.45
2022-09-20T15:19:52.269Z,2.25
2022-09-20T15:21:54.196Z,1.10
2022-09-20T15:23:55.863Z,1.25
2022-09-20T15:25:57.515Z,1.20
2022-09-20T15:27:59.731Z,1.00
2022-09-20T15:30:01.280Z,1.17
2022-09-20T15:32:04.514Z,1.88
2022-09-20T15:34:07.392Z,1.60
2022-09-20T15:36:10.322Z,2.35
2022-09-20T15:38:12.890Z,1.30
2022-09-20T15:40:15.305Z,1.30
2022-09-20T15:42:17.019Z,1.33
2022-09-20T15:44:20.814Z,1.30
2022-09-20T15:46:24.569Z,1.48
2022-09-20T15:48:28.350Z,1.35
2022-09-20T15:50:30.255Z,1.13
2022-09-20T15:52:34.496Z,1.10
2022-09-20T15:54:36.306Z,1.00
2022-09-20T15:56:40.691Z,1.10
2022-09-20T15:58:48.689Z,1.20
2022-09-20T16:00:50.326Z,0.98
2022-09-20T16:02:51.983Z,0.90
2022-09-20T16:04:57.824Z,1.20
2022-09-20T16:06:59.401Z,1.00
2022-09-20T16:09:00.981Z,1.25
2022-09-20T16:11:03.360Z,1.13
2022-09-20T16:13:04.998Z,1.30
2022-09-20T16:15:07.323Z,1.30
2022-09-20T16:17:08.897Z,1.20
2022-09-20T16:19:25.156Z,0.93
2022-09-20T16:21:26.849Z,1.80
2022-09-20T16:23:28.494Z,1.63
2022-09-20T16:25:30.132Z,1.60
2022-09-20T16:27:34.280Z,1.58
2022-09-20T16:29:36.325Z,1.58
2022-09-20T16:31:43.040Z,1.80
2022-09-20T16:33:44.738Z,1.80
2022-09-20T16:35:46.314Z,2.47
2022-09-20T16:37:48.284Z,4.20
2022-09-20T16:39:49.877Z,1.88
2022-09-20T16:41:52.951Z,2.35
2022-09-20T16:43:54.924Z,2.28
2022-09-20T16:46:00.662Z,2.03
2022-09-20T16:48:08.291Z,1.80
2022-09-20T16:50:11.988Z,5.60
2022-09-20T16:52:13.813Z,2.75
2022-09-20T16:54:16.747Z,7.88
2022-09-20T16:56:21.667Z,3.83
2022-09-20T16:58:30.501Z,3.60
2022-09-20T17:00:33.748Z,2.67
2022-09-20T17:02:36.399Z,2.40
2022-09-20T17:04:38.042Z,2.60
2022-09-20T17:06:40.277Z,2.67
2022-09-20T17:08:43.008Z,2.72
2022-09-20T17:10:45.341Z,2.55
2022-09-20T17:12:47.950Z,2.22
2022-09-20T17:14:49.808Z,2.80
2022-09-20T17:16:51.510Z,2.92
2022-09-20T17:19:07.356Z,2.90
2022-09-20T17:21:18.537Z,3.05
2022-09-20T17:23:20.836Z,3.03
2022-09-20T17:25:22.584Z,2.80
2022-09-20T17:27:24.518Z,3.53
2022-09-20T17:29:26.182Z,5.10
2022-09-20T17:31:34.184Z,4.07
2022-09-20T17:33:36.705Z,3.65
2022-09-20T17:35:38.489Z,3.30
2022-09-20T17:37:41.064Z,3.80
2022-09-20T17:39:42.636Z,3.42
2022-09-20T17:41:47.171Z,2.85
2022-09-20T17:43:53.025Z,2.90
2022-09-20T17:45:55.821Z,3.13
2022-09-20T17:47:58.688Z,3.28
2022-09-20T17:50:01.358Z,3.00
2022-09-20T17:52:04.524Z,3.47
2022-09-20T17:54:08.076Z,3.28
2022-09-20T17:56:11.871Z,2.90
2022-09-20T18:00:16.584Z,3.15
2022-09-20T18:02:18.524Z,2.63
2022-09-20T18:04:21.438Z,2.72
2022-09-20T18:06:28.999Z,2.97
2022-09-20T18:08:30.730Z,2.70
2022-09-20T18:10:32.914Z,2.38
2022-09-20T18:12:34.995Z,2.63
2022-09-20T18:14:37.138Z,2.70
2022-09-20T18:16:39.837Z,2.42
2022-09-20T18:18:43.932Z,2.90
2022-09-20T18:20:46.483Z,2.60
2022-09-20T18:22:49.043Z,2.42
2022-09-20T18:24:51.016Z,2.80
2022-09-20T18:26:52.785Z,2.40
2022-09-20T18:29:02.476Z,2.50
2022-09-20T18:31:05.535Z,2.47
2022-09-20T18:33:08.459Z,2.30
2022-09-20T18:35:10.699Z,2.15
2022-09-20T18:37:14.838Z,2.40
2022-09-20T18:39:16.850Z,2.13
2022-09-20T18:41:18.604Z,2.17
2022-09-20T18:43:20.999Z,2.50
2022-09-20T18:45:23.594Z,2.40
2022-09-20T18:47:25.915Z,2.58
2022-09-20T18:49:29.647Z,2.33
2022-09-20T18:51:38.576Z,2.17
2022-09-20T18:53:41.173Z,2.05
2022-09-20T18:55:44.131Z,2.95
2022-09-20T18:57:46.488Z,2.40
2022-09-20T18:59:54.442Z,2.15
2022-09-20T19:02:17.805Z,2.60
2022-09-20T19:04:47.730Z,2.42
2022-09-20T19:07:04.877Z,2.22
2022-09-20T19:09:15.195Z,2.33
2022-09-20T19:11:32.004Z,2.15
2022-09-20T19:14:15.135Z,2.22
2022-09-20T19:16:21.173Z,2.70
2022-09-20T19:19:02.005Z,2.42
2022-09-20T19:21:41.481Z,2.42
2022-09-20T19:24:03.506Z,2.00
2022-09-20T19:26:19.008Z,2.30
2022-09-20T19:28:21.141Z,2.25
2022-09-20T19:30:23.635Z,2.08
2022-09-20T19:32:27.422Z,2.25
2022-09-20T19:36:39.856Z,2.50
2022-09-20T19:39:18.676Z,2.72
2022-09-20T19:41:41.899Z,2.10
2022-09-20T19:43:47.340Z,2.47
2022-09-20T19:45:56.759Z,2.10
2022-09-20T19:48:16.533Z,2.25
2022-09-20T19:50:44.524Z,2.50
2022-09-20T19:52:46.395Z,2.67
2022-09-20T19:54:51.860Z,2.10
2022-09-20T19:56:55.734Z,2.65
2022-09-20T20:00:59.617Z,2.72
2022-09-20T20:03:01.563Z,2.72
2022-09-20T20:05:04.185Z,2.75
2022-09-20T20:07:22.366Z,3.67
2022-09-20T20:09:45.305Z,3.63
2022-09-20T20:12:05.887Z,4.20
2022-09-20T20:14:12.982Z,4.72
2022-09-20T20:16:16.244Z,4.95
2022-09-20T20:18:32.446Z,4.80
2022-09-20T20:20:45.846Z,5.22
2022-09-20T20:23:22.274Z,4.35
2022-09-20T20:25:42.165Z,4.53
2022-09-20T20:27:43.731Z,3.65
2022-09-20T20:29:45.506Z,3.80
2022-09-20T20:31:47.206Z,3.63
2022-09-20T20:33:49.028Z,3.22
2022-09-20T20:35:55.761Z,3.35
2022-09-20T20:38:36.940Z,2.90
2022-09-20T20:40:39.206Z,2.55
2022-09-20T20:42:42.364Z,3.03
2022-09-20T20:44:43.940Z,2.88
2022-09-20T20:46:47.585Z,2.50
2022-09-20T20:48:49.574Z,2.55
2022-09-20T20:51:04.554Z,2.40
2022-09-20T20:53:06.688Z,3.13
2022-09-20T20:55:08.687Z,2.45
2022-09-20T20:57:10.257Z,3.80
2022-09-20T20:59:11.930Z,2.78
2022-09-20T21:01:13.650Z,3.20
2022-09-20T21:03:15.264Z,2.40
2022-09-20T21:05:16.932Z,2.80
2022-09-20T21:07:18.577Z,2.83
2022-09-20T21:09:20.412Z,2.28
2022-09-20T21:11:24.464Z,2.60
2022-09-20T21:13:26.097Z,2.50
2022-09-20T21:15:28.040Z,2.33
2022-09-20T21:17:33.907Z,2.30
2022-09-20T21:19:37.509Z,2.35
2022-09-20T21:21:40.183Z,2.50
2022-09-20T21:23:41.884Z,2.42
2022-09-20T21:25:43.723Z,2.45
2022-09-20T21:27:45.316Z,2.25
2022-09-20T21:29:46.957Z,2.20
2022-09-20T21:31:48.797Z,2.00
2022-09-20T21:33:50.443Z,2.13
2022-09-20T21:35:52.367Z,2.13
2022-09-20T21:37:53.980Z,2.00
2022-09-20T21:39:55.548Z,1.95
2022-09-20T21:41:57.515Z,1.95
2022-09-20T21:44:00.642Z,2.28
2022-09-20T21:46:02.545Z,2.22
2022-09-20T21:48:05.399Z,2.20
2022-09-20T21:50:07.616Z,1.80
2022-09-20T21:52:10.970Z,2.17
2022-09-20T21:54:12.611Z,2.25
2022-09-20T21:56:17.584Z,1.90
2022-09-20T21:58:19.216Z,1.75
2022-09-20T22:00:20.892Z,1.80
2022-09-20T22:02:23.385Z,1.95
2022-09-20T22:04:25.547Z,1.85
2022-09-20T22:06:32.487Z,2.00
2022-09-20T22:08:34.312Z,2.15
2022-09-20T22:10:37.025Z,1.83
2022-09-20T22:12:38.831Z,2.20
2022-09-20T22:14:40.506Z,1.85
2022-09-20T22:16:43.727Z,1.83
2022-09-20T22:18:46.979Z,1.98
2022-09-20T22:20:48.702Z,1.88
2022-09-20T22:22:50.385Z,1.80
2022-09-20T22:24:52.030Z,1.80
2022-09-20T22:26:54.031Z,2.05
2022-09-20T22:28:56.168Z,1.95
2022-09-20T22:31:03.374Z,1.70
2022-09-20T22:33:05.251Z,1.70
2022-09-20T22:35:07.126Z,1.75
2022-09-20T22:37:08.771Z,1.80
2022-09-20T22:39:11.365Z,1.80
2022-09-20T22:41:15.020Z,1.90
2022-09-20T22:43:16.672Z,1.77
2022-09-20T22:45:18.230Z,1.98
2022-09-20T22:47:19.840Z,1.67
2022-09-20T22:49:21.413Z,1.75
2022-09-20T22:51:25.403Z,1.80
2022-09-20T22:53:28.317Z,1.80
2022-09-20T22:55:31.379Z,1.77
2022-09-20T22:57:32.954Z,1.80
2022-09-20T22:59:34.766Z,1.65
2022-09-20T23:01:47.081Z,1.73
2022-09-20T23:03:54.101Z,1.70
2022-09-20T23:05:55.774Z,1.75
2022-09-20T23:07:57.321Z,1.70
2022-09-20T23:09:58.935Z,1.88
2022-09-20T23:12:00.655Z,1.85
2022-09-20T23:14:05.126Z,1.90
2022-09-20T23:16:11.340Z,1.45
2022-09-20T23:18:12.960Z,1.60
2022-09-20T23:20:14.753Z,1.88
2022-09-20T23:22:16.347Z,1.63
2022-09-20T23:24:17.992Z,1.50
2022-09-20T23:26:20.385Z,1.90
2022-09-20T23:28:28.257Z,1.77
2022-09-20T23:30:32.028Z,2.05
2022-09-20T23:34:35.124Z,1.30
2022-09-20T23:36:39.174Z,1.50
2022-09-20T23:38:41.180Z,1.50
2022-09-20T23:40:42.744Z,1.70
2022-09-20T23:42:44.433Z,1.88
2022-09-20T23:44:46.285Z,1.50
2022-09-20T23:46:47.839Z,1.60
2022-09-20T23:48:51.015Z,1.60
2022-09-20T23:50:52.840Z,1.40
2022-09-20T23:52:54.432Z,1.45
2022-09-20T23:54:56.044Z,1.45
2022-09-20T23:56:57.652Z,1.45
2022-09-20T23:58:59.300Z,1.65
